Captain Ed — WDF6338 — position and weather

sailwx.info

Track history (hours):
 
Tides and Currents Weather Stations Pressure Air Temp Water Temp Dewpoint Dewpoint Depression Visibility Wind Speed Wind Dir Waves Ship Positions

Captain Ed

Owner: Norfolk Dredging Company, Chesapeake, VA. More information available from US FCC via Universal Licensing System and Coast Guard Vessel Documentation Center.

Last reported at 2016-Apr-25 05:21 UTC. Time now 2016-May-05 23:47 UTC.
Position N 35°12' W 076°35'.
Warning: this ship's position is 10 days out of date.

Length 22 m; draft 3 m.

Type: Tug. MMSI: 367473210.

Date/timePositionNaut miles runAvg speedWind from/ knotsBaromVisibWave heightAir tempDewpointWater temp
2016-Apr-25 05:21N 35°12' W 076°35'4 4.4
2016-Apr-25 04:29N 35°10' W 076°32'8 3.8
2016-Apr-25 02:26N 35°03' W 076°36'4 4.4
2016-Apr-25 01:32N 35°01' W 076°40'4 3.8
2016-Apr-25 00:33N 34°57' W 076°40'3 3.1
2016-Apr-24 23:33N 34°54' W 076°41'3 2.7
2016-Apr-24 22:33N 34°51' W 076°41'2 2.4
2016-Apr-24 21:33N 34°49' W 076°41'2 2.3
2016-Apr-24 20:33N 34°47' W 076°41'2 2.3
2016-Apr-24 19:33N 34°45' W 076°41'2 2.4
2016-Apr-24 18:33N 34°43' W 076°43'4 3.8
2016-Apr-24 17:33N 34°43' W 076°47'3 3.4
2016-Apr-24 16:33N 34°43' W 076°51'3 3.0
2016-Apr-24 15:33N 34°43' W 076°55'5 3.2
2016-Apr-24 14:08N 34°41' W 077°00'3 0.1
2016-Apr-22 22:06N 34°43' W 076°57'4 6.5
2016-Apr-22 21:33N 34°43' W 076°53'7 6.7
2016-Apr-22 20:33N 34°43' W 076°45'5 5.3
2016-Apr-22 19:33N 34°48' W 076°41'7 7.3
2016-Apr-22 18:33N 34°55' W 076°40'112 4.0
2016-Apr-21 14:24N 36°43' W 076°06'4 1.2
2016-Apr-21 11:27N 36°40' W 076°04'69 2.5
2016-Apr-20 08:15N 35°33' W 076°27'20 2.9
2016-Apr-20 01:27N 35°14' W 076°35'4 4.1
2016-Apr-20 00:33N 35°11' W 076°34'4 4.2
2016-Apr-19 23:33N 35°08' W 076°30'5 4.5
2016-Apr-19 22:27N 35°04' W 076°34'5 4.4
2016-Apr-19 21:20N 35°01' W 076°39'3 4.0
2016-Apr-19 20:32N 34°59' W 076°41'3 3.5
2016-Apr-19 19:34N 34°56' W 076°39'3 3.3
2016-Apr-19 18:33N 34°53' W 076°41'3 3.3
2016-Apr-19 17:33N 34°50' W 076°41'3 2.8
2016-Apr-19 16:34N 34°47' W 076°41'3 2.9
2016-Apr-19 15:34N 34°44' W 076°41'4 3.5
2016-Apr-19 14:34N 34°43' W 076°45'5 4.6
2016-Apr-19 13:34N 34°43' W 076°51'4 3.7
2016-Apr-19 12:33N 34°43' W 076°55'4 3.7
2016-Apr-19 11:32N 34°42' W 076°60'15 3.7
2016-Apr-19 07:32N 34°35' W 077°16'0 0.0
2016-Apr-19 06:34N 34°35' W 077°16'0 0.0
2016-Apr-19 04:26N 34°35' W 077°16'0 0.0
2016-Apr-19 03:26N 34°35' W 077°16'0 0.0
2016-Apr-19 02:31N 34°35' W 077°16'2 2.1
2016-Apr-19 01:34N 34°34' W 077°18'  
Track history (hours):
 
Tides and Currents Weather Stations Pressure Air Temp Water Temp Dewpoint Dewpoint Depression Visibility Wind Speed Wind Dir Waves Ship Positions

Captain Ed

Owner: Norfolk Dredging Company, Chesapeake, VA. More information available from US FCC via Universal Licensing System and Coast Guard Vessel Documentation Center.

Last reported at 2016-Apr-25 05:21 UTC. Time now 2016-May-05 23:47 UTC.
Position N 35°12' W 076°35'.
Warning: this ship's position is 10 days out of date.

Length 22 m; draft 3 m.

Type: Tug. MMSI: 367473210.

Date/timePositionNaut miles runAvg speedWind from/ knotsBaromVisibWave heightAir tempDewpointWater temp
2016-Apr-25 05:21N 35°12' W 076°35'4 4.4
2016-Apr-25 04:29N 35°10' W 076°32'8 3.8
2016-Apr-25 02:26N 35°03' W 076°36'4 4.4
2016-Apr-25 01:32N 35°01' W 076°40'4 3.8
2016-Apr-25 00:33N 34°57' W 076°40'3 3.1
2016-Apr-24 23:33N 34°54' W 076°41'3 2.7
2016-Apr-24 22:33N 34°51' W 076°41'2 2.4
2016-Apr-24 21:33N 34°49' W 076°41'2 2.3
2016-Apr-24 20:33N 34°47' W 076°41'2 2.3
2016-Apr-24 19:33N 34°45' W 076°41'2 2.4
2016-Apr-24 18:33N 34°43' W 076°43'4 3.8
2016-Apr-24 17:33N 34°43' W 076°47'3 3.4
2016-Apr-24 16:33N 34°43' W 076°51'3 3.0
2016-Apr-24 15:33N 34°43' W 076°55'5 3.2
2016-Apr-24 14:08N 34°41' W 077°00'3 0.1
2016-Apr-22 22:06N 34°43' W 076°57'4 6.5
2016-Apr-22 21:33N 34°43' W 076°53'7 6.7
2016-Apr-22 20:33N 34°43' W 076°45'5 5.3
2016-Apr-22 19:33N 34°48' W 076°41'7 7.3
2016-Apr-22 18:33N 34°55' W 076°40'112 4.0
2016-Apr-21 14:24N 36°43' W 076°06'4 1.2
2016-Apr-21 11:27N 36°40' W 076°04'69 2.5
2016-Apr-20 08:15N 35°33' W 076°27'20 2.9
2016-Apr-20 01:27N 35°14' W 076°35'4 4.1
2016-Apr-20 00:33N 35°11' W 076°34'4 4.2
2016-Apr-19 23:33N 35°08' W 076°30'5 4.5
2016-Apr-19 22:27N 35°04' W 076°34'5 4.4
2016-Apr-19 21:20N 35°01' W 076°39'3 4.0
2016-Apr-19 20:32N 34°59' W 076°41'3 3.5
2016-Apr-19 19:34N 34°56' W 076°39'3 3.3
2016-Apr-19 18:33N 34°53' W 076°41'3 3.3
2016-Apr-19 17:33N 34°50' W 076°41'3 2.8
2016-Apr-19 16:34N 34°47' W 076°41'3 2.9
2016-Apr-19 15:34N 34°44' W 076°41'4 3.5
2016-Apr-19 14:34N 34°43' W 076°45'5 4.6
2016-Apr-19 13:34N 34°43' W 076°51'4 3.7
2016-Apr-19 12:33N 34°43' W 076°55'4 3.7
2016-Apr-19 11:32N 34°42' W 076°60'15 3.7
2016-Apr-19 07:32N 34°35' W 077°16'0 0.0
2016-Apr-19 06:34N 34°35' W 077°16'0 0.0
2016-Apr-19 04:26N 34°35' W 077°16'0 0.0
2016-Apr-19 03:26N 34°35' W 077°16'0 0.0
2016-Apr-19 02:31N 34°35' W 077°16'2 2.1
2016-Apr-19 01:34N 34°34' W 077°18'  

Dump ship's entire track history